createdAt,value
2019-03-19T00:01:51.884Z,81.87
2019-03-19T00:04:21.906Z,81.73
2019-03-19T00:06:51.935Z,81.21
2019-03-19T00:09:21.974Z,81.61
2019-03-19T00:11:51.996Z,81.95
2019-03-19T00:14:22.023Z,82.09
2019-03-19T00:16:52.053Z,81.98
2019-03-19T00:22:01.448Z,81.85
2019-03-19T00:24:31.480Z,81.73
2019-03-19T00:27:01.532Z,81.81
2019-03-19T00:29:31.876Z,82.07
2019-03-19T00:32:01.916Z,81.86
2019-03-19T00:34:32.301Z,81.91
2019-03-19T00:37:02.627Z,81.81
2019-03-19T00:39:32.953Z,82.04
2019-03-19T00:42:02.995Z,81.82
2019-03-19T00:44:33.016Z,82.12
2019-03-19T00:47:03.073Z,81.60
2019-03-19T00:49:33.105Z,81.44
2019-03-19T00:52:03.536Z,81.68
2019-03-19T00:54:33.857Z,81.70
2019-03-19T00:57:04.155Z,81.58
2019-03-19T00:59:34.200Z,82.11
2019-03-19T01:02:04.250Z,81.80
2019-03-19T01:04:34.270Z,81.52
2019-03-19T01:07:04.307Z,81.54
2019-03-19T01:09:34.687Z,81.78
2019-03-19T01:12:04.983Z,82.11
2019-03-19T01:17:14.365Z,81.81
2019-03-19T01:19:44.415Z,81.68
2019-03-19T01:22:14.420Z,81.84
2019-03-19T01:24:44.491Z,82.16
2019-03-19T01:27:14.547Z,82.45
2019-03-19T01:29:44.932Z,82.59
2019-03-19T01:32:14.983Z,82.93
2019-03-19T01:34:45.016Z,83.11
2019-03-19T01:37:15.400Z,83.80
2019-03-19T01:39:45.699Z,83.71
2019-03-19T01:42:16.022Z,83.72
2019-03-19T01:44:46.044Z,83.46
2019-03-19T01:47:16.087Z,83.42
2019-03-19T01:49:46.123Z,83.21
2019-03-19T01:54:55.854Z,83.48
2019-03-19T01:57:25.891Z,84.16
2019-03-19T01:59:55.920Z,84.43
2019-03-19T02:02:26.245Z,84.16
2019-03-19T02:04:56.654Z,84.32
2019-03-19T02:07:27.064Z,84.81
2019-03-19T02:09:57.095Z,84.78
2019-03-19T02:12:27.150Z,84.72
2019-03-19T02:14:57.174Z,84.12
2019-03-19T02:17:27.204Z,85.02
2019-03-19T02:19:57.243Z,84.97
2019-03-19T02:22:27.280Z,85.04
2019-03-19T02:24:57.669Z,85.12
2019-03-19T02:27:27.704Z,85.07
2019-03-19T02:29:57.714Z,85.30
2019-03-19T02:32:27.788Z,85.63
2019-03-19T02:34:57.803Z,85.05
2019-03-19T02:37:27.829Z,85.08
2019-03-19T02:39:58.152Z,85.00
2019-03-19T02:42:28.175Z,85.69
2019-03-19T02:44:58.221Z,85.72
2019-03-19T02:47:28.602Z,86.19
2019-03-19T02:49:58.616Z,85.99
2019-03-19T02:52:28.654Z,86.04
2019-03-19T02:54:58.700Z,85.96
2019-03-19T02:57:28.725Z,86.47
2019-03-19T02:59:58.747Z,86.47
2019-03-19T03:02:29.115Z,86.14
2019-03-19T03:04:59.146Z,86.01
2019-03-19T03:10:08.909Z,86.36
2019-03-19T03:12:38.977Z,86.15
2019-03-19T03:15:09.064Z,86.30
2019-03-19T03:17:39.077Z,86.59
2019-03-19T03:22:48.839Z,86.94
2019-03-19T03:25:18.858Z,86.24
2019-03-19T03:27:49.225Z,85.72
2019-03-19T03:30:22.007Z,85.71
2019-03-19T03:32:52.064Z,85.72
2019-03-19T03:35:22.188Z,85.41
2019-03-19T03:37:52.362Z,85.50
2019-03-19T03:40:22.391Z,85.53
2019-03-19T03:42:52.691Z,85.18
2019-03-19T03:45:22.754Z,85.21
2019-03-19T03:47:52.824Z,85.27
2019-03-19T03:50:22.871Z,84.82
2019-03-19T03:55:32.820Z,85.15
2019-03-19T03:58:02.877Z,85.00
2019-03-19T04:00:32.916Z,84.67
2019-03-19T04:03:02.955Z,84.79
2019-03-19T04:05:33.000Z,85.02
2019-03-19T04:08:03.048Z,85.55
2019-03-19T04:10:33.070Z,86.01
2019-03-19T04:13:03.112Z,86.32
2019-03-19T04:15:33.157Z,86.22
2019-03-19T04:18:03.189Z,86.18
2019-03-19T04:20:33.589Z,85.94
2019-03-19T04:23:03.901Z,85.59
2019-03-19T04:28:13.649Z,85.51
2019-03-19T04:30:43.686Z,85.55
2019-03-19T04:33:13.734Z,85.40
2019-03-19T04:35:43.770Z,85.29
2019-03-19T04:38:13.805Z,85.68
2019-03-19T04:40:43.846Z,85.45
2019-03-19T04:43:13.869Z,85.76
2019-03-19T04:45:43.911Z,86.24
2019-03-19T04:50:53.723Z,85.85
2019-03-19T04:53:24.378Z,86.19
2019-03-19T04:55:54.186Z,86.46
2019-03-19T04:58:24.223Z,86.27
2019-03-19T05:00:54.269Z,86.06
2019-03-19T05:03:24.629Z,85.36
2019-03-19T05:05:54.670Z,86.08
2019-03-19T05:08:24.960Z,86.57
2019-03-19T05:10:55.043Z,86.81
2019-03-19T05:13:25.038Z,86.88
2019-03-19T05:15:55.092Z,86.55
2019-03-19T05:21:04.781Z,86.92
2019-03-19T05:23:34.813Z,86.90
2019-03-19T05:26:04.849Z,86.75
2019-03-19T05:28:34.885Z,86.80
2019-03-19T05:31:04.943Z,86.64
2019-03-19T05:33:34.952Z,86.80
2019-03-19T05:36:04.992Z,87.25
2019-03-19T05:38:35.012Z,86.75
2019-03-19T05:41:05.411Z,86.48
2019-03-19T05:43:35.712Z,87.16
2019-03-19T05:46:05.823Z,87.60
2019-03-19T05:51:15.199Z,87.22
2019-03-19T05:56:24.603Z,87.41
2019-03-19T05:58:54.958Z,87.00
2019-03-19T06:01:24.994Z,86.90
2019-03-19T06:03:55.406Z,86.66
2019-03-19T06:06:25.717Z,86.17
2019-03-19T06:08:56.060Z,86.59
2019-03-19T06:11:26.097Z,86.53
2019-03-19T06:13:56.389Z,86.81
2019-03-19T06:16:26.429Z,86.71
2019-03-19T06:21:36.150Z,87.20
2019-03-19T06:24:06.456Z,86.77
2019-03-19T06:26:36.799Z,86.97
2019-03-19T06:29:06.885Z,86.77
2019-03-19T06:31:36.933Z,86.24
2019-03-19T06:34:06.967Z,86.01
2019-03-19T06:36:37.014Z,85.15
2019-03-19T06:39:07.068Z,84.73
2019-03-19T06:41:37.099Z,84.45
2019-03-19T06:44:07.132Z,84.19
2019-03-19T06:46:37.193Z,83.48
2019-03-19T06:49:07.229Z,83.52
2019-03-19T06:51:37.563Z,83.10
2019-03-19T06:54:07.581Z,82.73
2019-03-19T06:56:37.628Z,82.65
2019-03-19T06:59:07.666Z,82.09
2019-03-19T07:01:38.057Z,81.35
2019-03-19T07:04:08.351Z,80.86
2019-03-19T07:06:38.413Z,80.65
2019-03-19T07:09:08.800Z,80.59
2019-03-19T07:11:38.836Z,80.18
2019-03-19T07:14:08.863Z,80.28
2019-03-19T07:16:38.903Z,80.53
2019-03-19T07:19:08.939Z,80.14
2019-03-19T07:21:39.282Z,80.09
2019-03-19T07:24:09.599Z,79.40
2019-03-19T07:26:39.652Z,78.99
2019-03-19T07:29:09.671Z,78.93
2019-03-19T07:31:40.080Z,77.84
2019-03-19T07:34:10.115Z,77.70
2019-03-19T07:36:40.157Z,77.33
2019-03-19T07:39:10.194Z,77.11
2019-03-19T07:41:40.238Z,77.14
2019-03-19T07:44:10.263Z,76.29
2019-03-19T07:46:40.301Z,75.89
2019-03-19T07:49:10.345Z,76.13
2019-03-19T07:51:40.699Z,75.83
2019-03-19T07:54:11.010Z,75.32
2019-03-19T07:56:41.086Z,76.34
2019-03-19T07:59:11.108Z,77.61
2019-03-19T08:01:41.486Z,77.25
2019-03-19T08:04:11.524Z,78.11
2019-03-19T08:06:41.555Z,77.90
2019-03-19T08:09:11.603Z,77.83
2019-03-19T08:11:41.651Z,77.95
2019-03-19T08:14:11.688Z,77.70
2019-03-19T08:16:41.721Z,76.36
2019-03-19T08:19:11.750Z,75.22
2019-03-19T08:21:41.785Z,74.30
2019-03-19T08:24:11.840Z,74.25
2019-03-19T08:26:41.885Z,73.44
2019-03-19T08:31:52.529Z,72.79
2019-03-19T08:34:21.295Z,72.70
2019-03-19T08:36:51.364Z,73.01
2019-03-19T08:39:21.394Z,72.17
2019-03-19T08:41:51.755Z,72.18
2019-03-19T08:44:27.625Z,72.01
2019-03-19T08:46:51.835Z,71.50
2019-03-19T08:49:22.412Z,70.63
2019-03-19T08:51:51.924Z,71.00
2019-03-19T08:54:21.953Z,71.83
2019-03-19T08:56:52.021Z,70.53
2019-03-19T08:59:22.038Z,69.77
2019-03-19T09:01:52.113Z,70.18
2019-03-19T09:04:22.088Z,70.86
2019-03-19T09:06:52.166Z,70.23
2019-03-19T09:09:22.188Z,70.53
2019-03-19T09:11:52.249Z,71.05
2019-03-19T09:14:22.285Z,70.77
2019-03-19T09:16:52.324Z,70.77
2019-03-19T09:19:22.688Z,67.71
2019-03-19T09:21:52.752Z,66.20
2019-03-19T09:24:22.786Z,65.70
2019-03-19T09:26:52.817Z,65.70
2019-03-19T09:29:25.333Z,65.43
2019-03-19T09:31:53.205Z,64.72
2019-03-19T09:34:23.239Z,65.36
2019-03-19T09:36:57.317Z,65.29
2019-03-19T09:39:23.348Z,67.39
2019-03-19T09:41:53.374Z,66.24
2019-03-19T09:44:23.456Z,66.68
2019-03-19T09:46:53.491Z,66.79
2019-03-19T09:49:23.536Z,66.79
2019-03-19T09:51:53.921Z,65.55
2019-03-19T09:54:23.949Z,66.61
2019-03-19T09:56:54.007Z,65.86
2019-03-19T10:02:03.404Z,66.18
2019-03-19T10:04:33.451Z,66.18
2019-03-19T10:07:06.375Z,64.24
2019-03-19T10:09:33.861Z,64.39
2019-03-19T10:12:04.275Z,62.98
2019-03-19T10:14:34.339Z,63.43
2019-03-19T10:17:04.377Z,59.78
2019-03-19T10:19:34.411Z,58.84
2019-03-19T10:22:04.460Z,58.84
2019-03-19T10:24:34.478Z,59.25
2019-03-19T10:27:04.529Z,57.21
2019-03-19T10:29:38.615Z,55.44
2019-03-19T10:32:04.643Z,55.99
2019-03-19T10:34:35.027Z,55.91
2019-03-19T10:37:05.054Z,54.63
2019-03-19T10:39:35.082Z,55.44
2019-03-19T10:42:05.130Z,55.14
2019-03-19T10:44:35.159Z,55.37
2019-03-19T10:47:05.196Z,55.47
2019-03-19T10:49:35.232Z,57.08
2019-03-19T10:52:05.261Z,57.42
2019-03-19T10:54:35.277Z,56.44
2019-03-19T10:57:05.320Z,56.17
2019-03-19T10:59:35.353Z,56.32
2019-03-19T11:02:05.385Z,55.43
2019-03-19T11:04:35.716Z,56.42
2019-03-19T11:07:06.040Z,56.86
2019-03-19T11:09:36.386Z,56.75
2019-03-19T11:12:06.699Z,55.93
2019-03-19T11:14:36.723Z,55.94
2019-03-19T11:17:06.784Z,53.94
2019-03-19T11:19:36.842Z,53.34
2019-03-19T11:22:06.876Z,56.24
2019-03-19T11:24:36.906Z,56.81
2019-03-19T11:27:06.968Z,56.31
2019-03-19T11:29:36.990Z,55.65
2019-03-19T11:32:07.023Z,56.52
2019-03-19T11:34:37.334Z,54.08
2019-03-19T11:37:07.378Z,54.37
2019-03-19T11:39:37.673Z,55.96
2019-03-19T11:42:07.748Z,57.10
2019-03-19T11:44:37.767Z,56.70
2019-03-19T11:47:07.810Z,57.48
2019-03-19T11:49:37.879Z,57.40
2019-03-19T11:52:08.268Z,56.45
2019-03-19T11:54:38.301Z,57.20
2019-03-19T11:57:08.711Z,56.82
2019-03-19T11:59:38.735Z,56.59
2019-03-19T12:02:08.767Z,56.67
2019-03-19T12:04:38.800Z,55.10
2019-03-19T12:07:08.818Z,54.22
2019-03-19T12:09:40.112Z,53.40
2019-03-19T12:12:11.570Z,54.22
2019-03-19T12:14:39.451Z,51.67
2019-03-19T12:17:09.296Z,52.97
2019-03-19T12:19:39.377Z,52.38
2019-03-19T12:22:09.398Z,54.20
2019-03-19T12:24:39.803Z,53.60
2019-03-19T12:27:10.242Z,53.60
2019-03-19T12:29:40.550Z,54.24
2019-03-19T12:32:10.566Z,54.38
2019-03-19T12:34:40.875Z,55.60
2019-03-19T12:37:10.913Z,54.80
2019-03-19T12:39:40.952Z,55.56
2019-03-19T12:42:10.977Z,54.90
2019-03-19T12:44:41.016Z,55.21
2019-03-19T12:47:11.047Z,55.46
2019-03-19T12:49:41.085Z,55.80
2019-03-19T12:52:11.108Z,53.78
2019-03-19T12:54:41.175Z,54.68
2019-03-19T12:57:11.201Z,55.36
2019-03-19T12:59:42.616Z,55.35
2019-03-19T13:02:11.285Z,55.42
2019-03-19T13:04:41.339Z,54.42
2019-03-19T13:07:11.461Z,55.21
2019-03-19T13:09:41.421Z,54.99
2019-03-19T13:12:11.442Z,54.66
2019-03-19T13:14:41.478Z,54.93
2019-03-19T13:17:11.540Z,55.38
2019-03-19T13:19:41.562Z,53.46
2019-03-19T13:22:12.593Z,52.64
2019-03-19T13:24:41.641Z,53.56
2019-03-19T13:27:12.013Z,52.49
2019-03-19T13:29:42.344Z,52.48
2019-03-19T13:32:12.662Z,51.89
2019-03-19T13:34:42.993Z,51.65
2019-03-19T13:37:13.015Z,51.27
2019-03-19T13:39:43.044Z,51.67
2019-03-19T13:42:13.076Z,50.75
2019-03-19T13:44:43.120Z,51.95
2019-03-19T13:47:13.142Z,51.75
2019-03-19T13:49:43.470Z,49.52
2019-03-19T13:52:13.499Z,50.07
2019-03-19T13:54:43.541Z,50.94
2019-03-19T13:57:13.575Z,51.18
2019-03-19T13:59:43.628Z,50.63
2019-03-19T14:02:13.661Z,51.13
2019-03-19T14:04:43.707Z,51.05
2019-03-19T14:07:13.726Z,51.73
2019-03-19T14:09:43.773Z,52.36
2019-03-19T14:12:13.790Z,52.66
2019-03-19T14:14:43.837Z,52.35
2019-03-19T14:17:13.857Z,52.74
2019-03-19T14:19:43.893Z,52.49
2019-03-19T14:22:13.941Z,52.89
2019-03-19T14:27:23.324Z,52.73
2019-03-19T14:29:53.369Z,53.78
2019-03-19T14:32:23.395Z,51.53
2019-03-19T14:34:53.705Z,51.95
2019-03-19T14:37:24.015Z,52.86
2019-03-19T14:39:54.055Z,53.55
2019-03-19T14:42:24.081Z,53.38
2019-03-19T14:44:54.478Z,52.70
2019-03-19T14:47:24.789Z,52.78
2019-03-19T14:49:54.852Z,53.47
2019-03-19T14:52:24.924Z,52.28
2019-03-19T14:54:55.200Z,53.17
2019-03-19T14:57:25.572Z,52.62
2019-03-19T14:59:55.899Z,52.50
2019-03-19T15:02:25.933Z,53.91
2019-03-19T15:04:56.236Z,54.30
2019-03-19T15:07:26.560Z,54.72
2019-03-19T15:09:56.907Z,54.43
2019-03-19T15:12:26.952Z,54.58
2019-03-19T15:14:56.987Z,55.17
2019-03-19T15:17:27.129Z,53.42
2019-03-19T15:19:57.175Z,53.61
2019-03-19T15:22:32.558Z,52.83
2019-03-19T15:24:57.261Z,53.78
2019-03-19T15:27:27.282Z,52.75
2019-03-19T15:29:57.327Z,53.29
2019-03-19T15:35:06.715Z,54.72
2019-03-19T15:37:36.930Z,53.93
2019-03-19T15:42:51.318Z,54.74
2019-03-19T15:48:06.390Z,53.39
2019-03-19T15:50:36.784Z,54.80
2019-03-19T15:53:06.799Z,54.84
2019-03-19T15:55:36.850Z,54.04
2019-03-19T15:58:07.220Z,55.31
2019-03-19T16:00:37.511Z,56.01
2019-03-19T16:03:07.541Z,55.30
2019-03-19T16:05:37.868Z,55.87
2019-03-19T16:08:07.914Z,54.76
2019-03-19T16:10:37.956Z,54.14
2019-03-19T16:13:07.986Z,54.53
2019-03-19T16:15:38.035Z,55.18
2019-03-19T16:18:08.068Z,56.15
2019-03-19T16:20:38.486Z,54.68
2019-03-19T16:23:08.497Z,55.70
2019-03-19T16:25:38.828Z,56.46
2019-03-19T16:28:09.143Z,56.80
2019-03-19T16:30:39.174Z,55.81
2019-03-19T16:33:09.467Z,55.58
2019-03-19T16:35:39.515Z,56.13
2019-03-19T16:38:09.562Z,56.64
2019-03-19T16:40:39.584Z,56.09
2019-03-19T16:43:09.612Z,56.49
2019-03-19T16:45:39.975Z,57.46
2019-03-19T16:48:10.499Z,57.28
2019-03-19T16:50:40.726Z,56.43
2019-03-19T16:53:10.769Z,55.51
2019-03-19T16:55:41.093Z,54.87
2019-03-19T16:58:11.595Z,54.62
2019-03-19T17:00:41.625Z,55.06
2019-03-19T17:03:11.930Z,55.61
2019-03-19T17:05:41.999Z,55.17
2019-03-19T17:08:12.014Z,56.33
2019-03-19T17:10:42.370Z,55.97
2019-03-19T17:13:12.794Z,57.08
2019-03-19T17:15:43.210Z,55.95
2019-03-19T17:18:13.534Z,56.20
2019-03-19T17:20:43.857Z,57.03
2019-03-19T17:23:13.971Z,57.12
2019-03-19T17:25:44.398Z,57.47
2019-03-19T17:28:22.139Z,57.59
2019-03-19T17:30:45.164Z,58.65
2019-03-19T17:33:15.189Z,58.71
2019-03-19T17:35:45.259Z,59.34
2019-03-19T17:38:15.422Z,60.40
2019-03-19T17:40:45.732Z,61.97
2019-03-19T17:43:16.071Z,62.39
2019-03-19T17:45:46.088Z,63.19
2019-03-19T17:48:16.648Z,61.57
2019-03-19T17:53:25.645Z,63.26
2019-03-19T17:55:55.957Z,63.62
2019-03-19T17:58:26.251Z,64.11
2019-03-19T18:00:56.298Z,64.42
2019-03-19T18:06:05.711Z,64.73
2019-03-19T18:11:15.724Z,65.06
2019-03-19T18:13:45.774Z,65.38
2019-03-19T18:16:15.813Z,65.63
2019-03-19T18:21:25.206Z,65.43
2019-03-19T18:23:57.910Z,63.32
2019-03-19T18:26:27.732Z,65.34
2019-03-19T18:28:57.768Z,65.78
2019-03-19T18:31:28.119Z,65.35
2019-03-19T18:33:58.126Z,65.72
2019-03-19T18:36:28.173Z,65.77
2019-03-19T18:41:37.900Z,63.51
2019-03-19T18:44:07.939Z,64.00
2019-03-19T18:46:37.973Z,63.67
2019-03-19T18:49:08.005Z,63.35
2019-03-19T18:51:38.379Z,63.92
2019-03-19T18:54:08.414Z,65.35
2019-03-19T18:56:38.445Z,65.32
2019-03-19T18:59:08.635Z,64.60
2019-03-19T19:01:38.850Z,64.22
2019-03-19T19:04:08.875Z,65.12
2019-03-19T19:06:39.297Z,65.56
2019-03-19T19:11:49.036Z,66.29
2019-03-19T19:14:19.480Z,66.14
2019-03-19T19:16:49.546Z,65.02
2019-03-19T19:19:19.923Z,65.68
2019-03-19T19:21:50.230Z,66.01
2019-03-19T19:26:59.635Z,64.06
2019-03-19T19:29:30.012Z,64.06
2019-03-19T19:32:00.051Z,62.93
2019-03-19T19:37:10.085Z,62.05
2019-03-19T19:42:19.787Z,61.80
2019-03-19T19:44:49.834Z,62.56
2019-03-19T19:47:19.868Z,62.11
2019-03-19T19:49:50.221Z,62.38
2019-03-19T19:52:20.263Z,62.65
2019-03-19T19:57:29.899Z,62.87
2019-03-19T20:02:39.290Z,64.27
2019-03-19T20:05:09.652Z,63.96
2019-03-19T20:13:01.163Z,64.27
2019-03-19T20:15:31.526Z,64.27
2019-03-19T20:18:01.559Z,63.97
2019-03-19T20:20:31.595Z,64.97
2019-03-19T20:23:01.637Z,65.57
2019-03-19T20:25:31.680Z,65.20
2019-03-19T20:28:01.768Z,65.27
2019-03-19T20:30:32.135Z,65.57
2019-03-19T20:33:02.159Z,65.56
2019-03-19T20:38:12.096Z,65.36
2019-03-19T20:40:42.427Z,64.59
2019-03-19T20:43:12.455Z,64.59
2019-03-19T20:45:42.492Z,64.53
2019-03-19T20:48:12.878Z,64.70
2019-03-19T20:50:43.179Z,65.56
2019-03-19T20:53:13.210Z,65.96
2019-03-19T20:55:43.666Z,66.94
2019-03-19T20:58:13.701Z,66.94
2019-03-19T21:00:43.735Z,67.34
2019-03-19T21:03:14.094Z,67.04
2019-03-19T21:08:23.886Z,67.56
2019-03-19T21:10:53.927Z,67.56
2019-03-19T21:13:24.296Z,66.93
2019-03-19T21:15:54.326Z,66.20
2019-03-19T21:18:24.366Z,66.29
2019-03-19T21:20:54.765Z,68.01
2019-03-19T21:23:24.825Z,68.01
2019-03-19T21:25:55.200Z,67.84
2019-03-19T21:28:27.173Z,68.43
2019-03-19T21:30:57.209Z,68.31
2019-03-19T21:33:27.265Z,68.70
2019-03-19T21:38:37.256Z,69.44
2019-03-19T21:41:07.372Z,69.82
2019-03-19T21:43:37.430Z,69.78
2019-03-19T21:46:07.804Z,69.87
2019-03-19T21:51:17.718Z,70.34
2019-03-19T21:53:47.821Z,70.53
2019-03-19T21:56:17.872Z,70.44
2019-03-19T22:01:27.873Z,69.64
2019-03-19T22:04:02.964Z,70.73
2019-03-19T22:06:27.947Z,70.55
2019-03-19T22:08:58.002Z,70.94
2019-03-19T22:11:28.353Z,70.44
2019-03-19T22:13:58.765Z,70.19
2019-03-19T22:16:29.078Z,70.71
2019-03-19T22:18:59.417Z,71.23
2019-03-19T22:21:29.730Z,70.95
2019-03-19T22:24:00.157Z,71.35
2019-03-19T22:26:30.281Z,71.49
2019-03-19T22:29:00.380Z,71.35
2019-03-19T22:31:30.430Z,72.00
2019-03-19T22:34:00.500Z,71.62
2019-03-19T22:36:30.854Z,71.94
2019-03-19T22:39:00.902Z,71.92
2019-03-19T22:41:30.930Z,72.37
2019-03-19T22:44:00.966Z,72.52
2019-03-19T22:46:30.997Z,72.81
2019-03-19T22:49:01.042Z,72.90
2019-03-19T22:51:31.352Z,72.80
2019-03-19T22:54:01.405Z,73.40
2019-03-19T22:56:31.432Z,73.05
2019-03-19T22:59:01.478Z,72.94
2019-03-19T23:01:31.513Z,72.94
2019-03-19T23:04:01.837Z,73.25
2019-03-19T23:06:32.161Z,72.99
2019-03-19T23:09:02.202Z,73.06
2019-03-19T23:11:32.246Z,73.20
2019-03-19T23:14:02.292Z,72.53
2019-03-19T23:16:32.323Z,73.52
2019-03-19T23:19:02.370Z,72.98
2019-03-19T23:21:32.391Z,72.99
2019-03-19T23:24:02.772Z,72.73
2019-03-19T23:26:32.836Z,73.26
2019-03-19T23:29:02.902Z,73.36
2019-03-19T23:31:32.926Z,72.96
2019-03-19T23:34:02.992Z,73.33
2019-03-19T23:36:33.025Z,73.24
2019-03-19T23:39:03.060Z,74.02
2019-03-19T23:41:33.110Z,74.12
2019-03-19T23:44:03.145Z,73.90
2019-03-19T23:46:33.517Z,73.93
2019-03-19T23:49:03.690Z,73.79
2019-03-19T23:51:33.730Z,74.16
2019-03-19T23:54:04.088Z,74.22
2019-03-19T23:56:34.115Z,74.17
2019-03-19T23:59:04.178Z,74.16
